sensor_id;sensor_type;location;lat;lon;timestamp;P1;durP1;ratioP1;P2;durP2;ratioP2
73428;SDS011;61643;49.564;17.412;2023-04-08T00:01:19;26.45;;;12.00;;
73428;SDS011;61643;49.564;17.412;2023-04-08T00:03:45;24.70;;;11.75;;
73428;SDS011;61643;49.564;17.412;2023-04-08T00:06:11;27.75;;;12.38;;
73428;SDS011;61643;49.564;17.412;2023-04-08T00:08:37;27.98;;;11.85;;
73428;SDS011;61643;49.564;17.412;2023-04-08T00:11:03;30.88;;;13.15;;
73428;SDS011;61643;49.564;17.412;2023-04-08T00:13:29;26.13;;;11.52;;
73428;SDS011;61643;49.564;17.412;2023-04-08T00:15:55;23.35;;;11.00;;
73428;SDS011;61643;49.564;17.412;2023-04-08T00:18:21;22.63;;;10.38;;
73428;SDS011;61643;49.564;17.412;2023-04-08T00:20:47;24.13;;;11.27;;
73428;SDS011;61643;49.564;17.412;2023-04-08T00:23:13;25.73;;;11.23;;
73428;SDS011;61643;49.564;17.412;2023-04-08T00:25:39;23.83;;;11.20;;
73428;SDS011;61643;49.564;17.412;2023-04-08T00:28:05;25.77;;;11.57;;
73428;SDS011;61643;49.564;17.412;2023-04-08T00:30:31;26.17;;;12.10;;
73428;SDS011;61643;49.564;17.412;2023-04-08T00:32:57;28.60;;;11.50;;
73428;SDS011;61643;49.564;17.412;2023-04-08T00:35:23;25.67;;;11.77;;
73428;SDS011;61643;49.564;17.412;2023-04-08T00:37:49;26.90;;;11.65;;
73428;SDS011;61643;49.564;17.412;2023-04-08T00:40:15;26.42;;;12.05;;
73428;SDS011;61643;49.564;17.412;2023-04-08T00:42:41;27.85;;;10.98;;
73428;SDS011;61643;49.564;17.412;2023-04-08T00:45:07;29.13;;;12.38;;
73428;SDS011;61643;49.564;17.412;2023-04-08T00:47:34;26.85;;;12.55;;
73428;SDS011;61643;49.564;17.412;2023-04-08T00:50:00;28.83;;;12.50;;
73428;SDS011;61643;49.564;17.412;2023-04-08T00:52:27;30.05;;;13.10;;
73428;SDS011;61643;49.564;17.412;2023-04-08T00:54:54;28.75;;;13.00;;
73428;SDS011;61643;49.564;17.412;2023-04-08T00:57:20;25.90;;;11.65;;
73428;SDS011;61643;49.564;17.412;2023-04-08T00:59:46;28.55;;;13.10;;
73428;SDS011;61643;49.564;17.412;2023-04-08T01:02:24;27.75;;;12.35;;
73428;SDS011;61643;49.564;17.412;2023-04-08T01:05:01;26.98;;;11.45;;
73428;SDS011;61643;49.564;17.412;2023-04-08T01:07:36;28.85;;;12.45;;
73428;SDS011;61643;49.564;17.412;2023-04-08T01:10:12;31.13;;;13.13;;
73428;SDS011;61643;49.564;17.412;2023-04-08T01:12:58;30.85;;;13.82;;
73428;SDS011;61643;49.564;17.412;2023-04-08T01:15:30;30.00;;;12.80;;
73428;SDS011;61643;49.564;17.412;2023-04-08T01:18:00;30.88;;;13.07;;
73428;SDS011;61643;49.564;17.412;2023-04-08T01:20:31;27.80;;;12.55;;
73428;SDS011;61643;49.564;17.412;2023-04-08T01:25:53;29.98;;;12.95;;
73428;SDS011;61643;49.564;17.412;2023-04-08T01:28:21;28.38;;;12.45;;
73428;SDS011;61643;49.564;17.412;2023-04-08T01:30:49;26.30;;;11.65;;
73428;SDS011;61643;49.564;17.412;2023-04-08T01:33:16;27.92;;;11.57;;
73428;SDS011;61643;49.564;17.412;2023-04-08T01:35:43;29.52;;;13.07;;
73428;SDS011;61643;49.564;17.412;2023-04-08T01:38:13;26.90;;;10.95;;
73428;SDS011;61643;49.564;17.412;2023-04-08T01:40:42;24.75;;;10.77;;
73428;SDS011;61643;49.564;17.412;2023-04-08T01:43:09;22.50;;;10.35;;
73428;SDS011;61643;49.564;17.412;2023-04-08T01:45:39;25.58;;;11.38;;
73428;SDS011;61643;49.564;17.412;2023-04-08T01:48:05;28.17;;;11.38;;
73428;SDS011;61643;49.564;17.412;2023-04-08T01:50:32;23.08;;;10.70;;
73428;SDS011;61643;49.564;17.412;2023-04-08T01:52:59;23.67;;;10.45;;
73428;SDS011;61643;49.564;17.412;2023-04-08T01:55:29;24.23;;;10.75;;
73428;SDS011;61643;49.564;17.412;2023-04-08T01:57:58;25.00;;;10.70;;
73428;SDS011;61643;49.564;17.412;2023-04-08T02:00:27;23.90;;;10.77;;
73428;SDS011;61643;49.564;17.412;2023-04-08T02:02:54;23.83;;;10.88;;
73428;SDS011;61643;49.564;17.412;2023-04-08T02:05:22;23.23;;;10.32;;
73428;SDS011;61643;49.564;17.412;2023-04-08T02:07:48;22.90;;;10.43;;
73428;SDS011;61643;49.564;17.412;2023-04-08T02:10:14;22.55;;;10.65;;
73428;SDS011;61643;49.564;17.412;2023-04-08T02:12:41;23.55;;;10.20;;
73428;SDS011;61643;49.564;17.412;2023-04-08T02:15:09;25.65;;;10.07;;
73428;SDS011;61643;49.564;17.412;2023-04-08T02:20:21;23.42;;;9.95;;
73428;SDS011;61643;49.564;17.412;2023-04-08T02:25:26;23.35;;;9.65;;
73428;SDS011;61643;49.564;17.412;2023-04-08T02:27:55;20.00;;;9.40;;
73428;SDS011;61643;49.564;17.412;2023-04-08T02:30:24;22.45;;;9.95;;
73428;SDS011;61643;49.564;17.412;2023-04-08T02:32:53;24.95;;;10.32;;
73428;SDS011;61643;49.564;17.412;2023-04-08T02:35:21;23.05;;;10.30;;
73428;SDS011;61643;49.564;17.412;2023-04-08T02:37:48;22.77;;;10.63;;
73428;SDS011;61643;49.564;17.412;2023-04-08T02:40:26;24.35;;;10.00;;
73428;SDS011;61643;49.564;17.412;2023-04-08T02:42:53;23.75;;;9.77;;
73428;SDS011;61643;49.564;17.412;2023-04-08T02:45:20;20.38;;;9.27;;
73428;SDS011;61643;49.564;17.412;2023-04-08T02:47:46;22.75;;;10.45;;
73428;SDS011;61643;49.564;17.412;2023-04-08T02:50:12;24.65;;;10.65;;
73428;SDS011;61643;49.564;17.412;2023-04-08T02:52:38;27.63;;;12.13;;
73428;SDS011;61643;49.564;17.412;2023-04-08T02:55:05;25.90;;;10.77;;
73428;SDS011;61643;49.564;17.412;2023-04-08T02:57:35;28.92;;;11.57;;
73428;SDS011;61643;49.564;17.412;2023-04-08T03:00:05;28.42;;;11.65;;
73428;SDS011;61643;49.564;17.412;2023-04-08T03:02:32;29.10;;;12.20;;
73428;SDS011;61643;49.564;17.412;2023-04-08T03:04:58;29.77;;;12.88;;
73428;SDS011;61643;49.564;17.412;2023-04-08T03:07:24;30.50;;;11.93;;
73428;SDS011;61643;49.564;17.412;2023-04-08T03:09:50;28.27;;;12.88;;
73428;SDS011;61643;49.564;17.412;2023-04-08T03:12:16;31.52;;;11.63;;
73428;SDS011;61643;49.564;17.412;2023-04-08T03:14:42;28.08;;;11.90;;
73428;SDS011;61643;49.564;17.412;2023-04-08T03:17:08;28.48;;;12.63;;
73428;SDS011;61643;49.564;17.412;2023-04-08T03:19:34;30.80;;;13.00;;
73428;SDS011;61643;49.564;17.412;2023-04-08T03:22:00;28.85;;;11.60;;
73428;SDS011;61643;49.564;17.412;2023-04-08T03:24:26;32.13;;;12.90;;
73428;SDS011;61643;49.564;17.412;2023-04-08T03:26:52;32.30;;;11.95;;
73428;SDS011;61643;49.564;17.412;2023-04-08T03:29:18;36.95;;;13.02;;
73428;SDS011;61643;49.564;17.412;2023-04-08T03:31:44;30.15;;;12.50;;
73428;SDS011;61643;49.564;17.412;2023-04-08T03:34:10;34.08;;;12.65;;
73428;SDS011;61643;49.564;17.412;2023-04-08T03:36:36;34.67;;;13.60;;
73428;SDS011;61643;49.564;17.412;2023-04-08T03:39:02;33.53;;;13.25;;
73428;SDS011;61643;49.564;17.412;2023-04-08T03:41:28;32.90;;;13.18;;
73428;SDS011;61643;49.564;17.412;2023-04-08T03:43:55;32.17;;;11.68;;
73428;SDS011;61643;49.564;17.412;2023-04-08T03:46:21;33.75;;;13.15;;
73428;SDS011;61643;49.564;17.412;2023-04-08T03:48:47;31.48;;;12.32;;
73428;SDS011;61643;49.564;17.412;2023-04-08T03:51:13;35.47;;;13.48;;
73428;SDS011;61643;49.564;17.412;2023-04-08T03:53:39;30.73;;;12.30;;
73428;SDS011;61643;49.564;17.412;2023-04-08T03:56:05;31.02;;;12.73;;
73428;SDS011;61643;49.564;17.412;2023-04-08T03:58:31;32.92;;;12.65;;
73428;SDS011;61643;49.564;17.412;2023-04-08T04:00:57;30.65;;;12.73;;
73428;SDS011;61643;49.564;17.412;2023-04-08T04:03:23;30.92;;;12.57;;
73428;SDS011;61643;49.564;17.412;2023-04-08T04:05:49;32.30;;;12.70;;
73428;SDS011;61643;49.564;17.412;2023-04-08T04:08:15;31.83;;;12.95;;
73428;SDS011;61643;49.564;17.412;2023-04-08T04:10:41;31.75;;;12.43;;
73428;SDS011;61643;49.564;17.412;2023-04-08T04:13:07;29.65;;;11.82;;
73428;SDS011;61643;49.564;17.412;2023-04-08T04:15:37;28.25;;;12.57;;
73428;SDS011;61643;49.564;17.412;2023-04-08T04:18:03;30.85;;;12.40;;
73428;SDS011;61643;49.564;17.412;2023-04-08T04:20:29;28.45;;;11.10;;
73428;SDS011;61643;49.564;17.412;2023-04-08T04:22:55;30.92;;;12.23;;
73428;SDS011;61643;49.564;17.412;2023-04-08T04:25:22;29.77;;;12.30;;
73428;SDS011;61643;49.564;17.412;2023-04-08T04:27:48;27.73;;;11.65;;
73428;SDS011;61643;49.564;17.412;2023-04-08T04:30:14;37.45;;;13.20;;
73428;SDS011;61643;49.564;17.412;2023-04-08T04:32:40;28.83;;;12.65;;
73428;SDS011;61643;49.564;17.412;2023-04-08T04:35:09;29.45;;;12.25;;
73428;SDS011;61643;49.564;17.412;2023-04-08T04:37:36;30.15;;;11.82;;
73428;SDS011;61643;49.564;17.412;2023-04-08T04:40:02;27.85;;;12.35;;
73428;SDS011;61643;49.564;17.412;2023-04-08T04:42:29;24.00;;;10.80;;
73428;SDS011;61643;49.564;17.412;2023-04-08T04:44:56;27.70;;;11.45;;
73428;SDS011;61643;49.564;17.412;2023-04-08T04:47:22;29.85;;;12.07;;
73428;SDS011;61643;49.564;17.412;2023-04-08T04:49:48;34.67;;;13.48;;
73428;SDS011;61643;49.564;17.412;2023-04-08T04:52:14;31.30;;;11.90;;
73428;SDS011;61643;49.564;17.412;2023-04-08T04:54:40;29.15;;;12.15;;
73428;SDS011;61643;49.564;17.412;2023-04-08T04:57:06;29.58;;;13.07;;
73428;SDS011;61643;49.564;17.412;2023-04-08T04:59:32;38.25;;;15.95;;
73428;SDS011;61643;49.564;17.412;2023-04-08T05:01:58;33.80;;;14.98;;
73428;SDS011;61643;49.564;17.412;2023-04-08T05:04:24;30.58;;;13.07;;
73428;SDS011;61643;49.564;17.412;2023-04-08T05:06:50;31.38;;;12.18;;
73428;SDS011;61643;49.564;17.412;2023-04-08T05:09:17;26.75;;;12.68;;
73428;SDS011;61643;49.564;17.412;2023-04-08T05:11:42;28.17;;;12.07;;
73428;SDS011;61643;49.564;17.412;2023-04-08T05:14:08;31.00;;;12.45;;
73428;SDS011;61643;49.564;17.412;2023-04-08T05:16:34;28.88;;;12.13;;
73428;SDS011;61643;49.564;17.412;2023-04-08T05:19:01;29.95;;;12.57;;
73428;SDS011;61643;49.564;17.412;2023-04-08T05:21:27;27.30;;;11.95;;
73428;SDS011;61643;49.564;17.412;2023-04-08T05:23:53;33.78;;;14.00;;
73428;SDS011;61643;49.564;17.412;2023-04-08T05:26:19;28.92;;;11.75;;
73428;SDS011;61643;49.564;17.412;2023-04-08T05:28:46;28.38;;;11.55;;
73428;SDS011;61643;49.564;17.412;2023-04-08T05:31:14;28.73;;;12.55;;
73428;SDS011;61643;49.564;17.412;2023-04-08T05:33:41;29.90;;;12.77;;
73428;SDS011;61643;49.564;17.412;2023-04-08T05:36:07;29.42;;;11.77;;
73428;SDS011;61643;49.564;17.412;2023-04-08T05:38:33;29.00;;;12.32;;
73428;SDS011;61643;49.564;17.412;2023-04-08T05:40:59;30.10;;;12.15;;
73428;SDS011;61643;49.564;17.412;2023-04-08T05:43:25;32.80;;;13.07;;
73428;SDS011;61643;49.564;17.412;2023-04-08T05:45:51;28.55;;;12.02;;
73428;SDS011;61643;49.564;17.412;2023-04-08T05:48:17;30.17;;;12.18;;
73428;SDS011;61643;49.564;17.412;2023-04-08T05:50:42;29.17;;;12.10;;
73428;SDS011;61643;49.564;17.412;2023-04-08T05:53:09;30.95;;;12.60;;
73428;SDS011;61643;49.564;17.412;2023-04-08T05:55:35;29.45;;;11.55;;
73428;SDS011;61643;49.564;17.412;2023-04-08T05:58:01;29.13;;;11.68;;
73428;SDS011;61643;49.564;17.412;2023-04-08T06:00:26;58.97;;;23.13;;
73428;SDS011;61643;49.564;17.412;2023-04-08T06:02:52;38.85;;;14.75;;
73428;SDS011;61643;49.564;17.412;2023-04-08T06:05:18;30.75;;;12.02;;
73428;SDS011;61643;49.564;17.412;2023-04-08T06:07:44;29.17;;;11.32;;
73428;SDS011;61643;49.564;17.412;2023-04-08T06:10:10;28.70;;;11.95;;
73428;SDS011;61643;49.564;17.412;2023-04-08T06:12:36;43.88;;;16.45;;
73428;SDS011;61643;49.564;17.412;2023-04-08T06:15:05;30.30;;;11.98;;
73428;SDS011;61643;49.564;17.412;2023-04-08T06:17:36;25.48;;;10.82;;
73428;SDS011;61643;49.564;17.412;2023-04-08T06:20:02;26.13;;;10.95;;
73428;SDS011;61643;49.564;17.412;2023-04-08T06:22:29;24.90;;;10.38;;
73428;SDS011;61643;49.564;17.412;2023-04-08T06:24:55;25.90;;;9.80;;
73428;SDS011;61643;49.564;17.412;2023-04-08T06:27:21;23.05;;;9.75;;
73428;SDS011;61643;49.564;17.412;2023-04-08T06:29:47;21.83;;;9.55;;
73428;SDS011;61643;49.564;17.412;2023-04-08T06:32:13;23.02;;;9.35;;
73428;SDS011;61643;49.564;17.412;2023-04-08T06:34:39;23.10;;;9.77;;
73428;SDS011;61643;49.564;17.412;2023-04-08T06:37:05;24.45;;;10.02;;
73428;SDS011;61643;49.564;17.412;2023-04-08T06:39:31;18.02;;;8.32;;
73428;SDS011;61643;49.564;17.412;2023-04-08T06:41:58;19.13;;;8.38;;
73428;SDS011;61643;49.564;17.412;2023-04-08T06:44:24;18.42;;;8.48;;
73428;SDS011;61643;49.564;17.412;2023-04-08T06:46:50;18.58;;;8.10;;
73428;SDS011;61643;49.564;17.412;2023-04-08T06:49:16;21.08;;;8.40;;
73428;SDS011;61643;49.564;17.412;2023-04-08T06:51:42;18.88;;;8.73;;
73428;SDS011;61643;49.564;17.412;2023-04-08T06:54:08;19.88;;;9.82;;
73428;SDS011;61643;49.564;17.412;2023-04-08T06:56:37;16.90;;;8.25;;
73428;SDS011;61643;49.564;17.412;2023-04-08T06:59:03;16.48;;;8.13;;
73428;SDS011;61643;49.564;17.412;2023-04-08T07:01:29;18.02;;;8.82;;
73428;SDS011;61643;49.564;17.412;2023-04-08T07:03:56;19.55;;;8.63;;
73428;SDS011;61643;49.564;17.412;2023-04-08T07:06:22;23.67;;;10.57;;
73428;SDS011;61643;49.564;17.412;2023-04-08T07:08:49;24.50;;;10.38;;
73428;SDS011;61643;49.564;17.412;2023-04-08T07:11:15;23.55;;;10.95;;
73428;SDS011;61643;49.564;17.412;2023-04-08T07:13:41;24.50;;;10.05;;
73428;SDS011;61643;49.564;17.412;2023-04-08T07:16:07;21.88;;;10.43;;
73428;SDS011;61643;49.564;17.412;2023-04-08T07:18:33;23.35;;;10.07;;
73428;SDS011;61643;49.564;17.412;2023-04-08T07:21:00;19.02;;;9.20;;
73428;SDS011;61643;49.564;17.412;2023-04-08T07:23:26;21.05;;;9.52;;
73428;SDS011;61643;49.564;17.412;2023-04-08T07:25:52;19.77;;;9.63;;
73428;SDS011;61643;49.564;17.412;2023-04-08T07:28:21;11.85;;;5.60;;
73428;SDS011;61643;49.564;17.412;2023-04-08T07:30:47;10.30;;;5.53;;
73428;SDS011;61643;49.564;17.412;2023-04-08T07:33:13;11.15;;;5.93;;
73428;SDS011;61643;49.564;17.412;2023-04-08T07:35:40;11.57;;;5.32;;
73428;SDS011;61643;49.564;17.412;2023-04-08T07:38:06;9.50;;;3.97;;
73428;SDS011;61643;49.564;17.412;2023-04-08T07:40:35;9.35;;;4.88;;
73428;SDS011;61643;49.564;17.412;2023-04-08T07:43:02;10.32;;;5.40;;
73428;SDS011;61643;49.564;17.412;2023-04-08T07:45:27;13.38;;;6.07;;
73428;SDS011;61643;49.564;17.412;2023-04-08T07:47:53;12.88;;;6.40;;
73428;SDS011;61643;49.564;17.412;2023-04-08T07:50:20;30.08;;;11.65;;
73428;SDS011;61643;49.564;17.412;2023-04-08T07:52:46;12.70;;;6.05;;
73428;SDS011;61643;49.564;17.412;2023-04-08T07:55:12;14.13;;;6.53;;
73428;SDS011;61643;49.564;17.412;2023-04-08T07:57:38;8.38;;;4.32;;
73428;SDS011;61643;49.564;17.412;2023-04-08T08:00:04;10.20;;;5.00;;
73428;SDS011;61643;49.564;17.412;2023-04-08T08:02:30;8.57;;;3.90;;
73428;SDS011;61643;49.564;17.412;2023-04-08T08:04:56;4.93;;;2.67;;
73428;SDS011;61643;49.564;17.412;2023-04-08T08:07:22;6.40;;;3.40;;
73428;SDS011;61643;49.564;17.412;2023-04-08T08:09:48;7.60;;;3.75;;
73428;SDS011;61643;49.564;17.412;2023-04-08T08:12:14;7.25;;;3.40;;
73428;SDS011;61643;49.564;17.412;2023-04-08T08:14:40;5.18;;;2.90;;
73428;SDS011;61643;49.564;17.412;2023-04-08T08:17:06;7.65;;;4.20;;
73428;SDS011;61643;49.564;17.412;2023-04-08T08:19:32;5.47;;;3.22;;
73428;SDS011;61643;49.564;17.412;2023-04-08T08:21:58;5.18;;;2.92;;
73428;SDS011;61643;49.564;17.412;2023-04-08T08:24:24;4.18;;;2.75;;
73428;SDS011;61643;49.564;17.412;2023-04-08T08:26:50;7.18;;;3.55;;
73428;SDS011;61643;49.564;17.412;2023-04-08T08:29:16;5.68;;;3.15;;
73428;SDS011;61643;49.564;17.412;2023-04-08T08:31:42;5.57;;;2.83;;
73428;SDS011;61643;49.564;17.412;2023-04-08T08:34:08;5.13;;;2.80;;
73428;SDS011;61643;49.564;17.412;2023-04-08T08:36:34;4.22;;;2.38;;
73428;SDS011;61643;49.564;17.412;2023-04-08T08:39:00;10.30;;;5.10;;
73428;SDS011;61643;49.564;17.412;2023-04-08T08:41:26;6.35;;;3.30;;
73428;SDS011;61643;49.564;17.412;2023-04-08T08:43:58;9.40;;;3.92;;
73428;SDS011;61643;49.564;17.412;2023-04-08T08:46:24;5.10;;;3.22;;
73428;SDS011;61643;49.564;17.412;2023-04-08T08:48:50;5.72;;;3.05;;
73428;SDS011;61643;49.564;17.412;2023-04-08T08:51:16;5.13;;;2.75;;
73428;SDS011;61643;49.564;17.412;2023-04-08T08:53:43;22.50;;;10.00;;
73428;SDS011;61643;49.564;17.412;2023-04-08T08:56:09;22.55;;;9.60;;
73428;SDS011;61643;49.564;17.412;2023-04-08T08:58:36;10.00;;;4.30;;
73428;SDS011;61643;49.564;17.412;2023-04-08T09:01:28;7.57;;;3.88;;
73428;SDS011;61643;49.564;17.412;2023-04-08T09:06:48;8.85;;;3.88;;
73428;SDS011;61643;49.564;17.412;2023-04-08T09:09:18;11.75;;;5.50;;
73428;SDS011;61643;49.564;17.412;2023-04-08T09:11:44;14.05;;;5.97;;
73428;SDS011;61643;49.564;17.412;2023-04-08T09:16:43;8.02;;;4.68;;
73428;SDS011;61643;49.564;17.412;2023-04-08T09:19:10;8.70;;;4.72;;
73428;SDS011;61643;49.564;17.412;2023-04-08T09:21:37;16.50;;;6.97;;
73428;SDS011;61643;49.564;17.412;2023-04-08T09:24:03;14.27;;;6.28;;
73428;SDS011;61643;49.564;17.412;2023-04-08T09:26:29;11.18;;;5.18;;
73428;SDS011;61643;49.564;17.412;2023-04-08T09:31:34;27.95;;;10.13;;
73428;SDS011;61643;49.564;17.412;2023-04-08T09:34:13;7.43;;;4.00;;
73428;SDS011;61643;49.564;17.412;2023-04-08T09:36:41;6.03;;;3.42;;
73428;SDS011;61643;49.564;17.412;2023-04-08T09:39:07;7.05;;;4.05;;
73428;SDS011;61643;49.564;17.412;2023-04-08T09:41:33;8.10;;;3.88;;
73428;SDS011;61643;49.564;17.412;2023-04-08T09:44:01;9.57;;;4.75;;
73428;SDS011;61643;49.564;17.412;2023-04-08T09:46:37;7.30;;;3.95;;
73428;SDS011;61643;49.564;17.412;2023-04-08T09:49:11;5.55;;;3.08;;
73428;SDS011;61643;49.564;17.412;2023-04-08T09:54:22;6.60;;;3.88;;
73428;SDS011;61643;49.564;17.412;2023-04-08T09:56:57;7.20;;;3.90;;
73428;SDS011;61643;49.564;17.412;2023-04-08T09:59:30;7.30;;;4.13;;
73428;SDS011;61643;49.564;17.412;2023-04-08T10:02:03;7.25;;;3.72;;
73428;SDS011;61643;49.564;17.412;2023-04-08T10:04:34;14.88;;;6.43;;
73428;SDS011;61643;49.564;17.412;2023-04-08T10:07:03;8.02;;;4.22;;
73428;SDS011;61643;49.564;17.412;2023-04-08T10:09:30;10.18;;;5.60;;
73428;SDS011;61643;49.564;17.412;2023-04-08T10:11:57;12.57;;;6.55;;
73428;SDS011;61643;49.564;17.412;2023-04-08T10:14:23;11.05;;;5.90;;
73428;SDS011;61643;49.564;17.412;2023-04-08T10:19:53;15.13;;;7.43;;
73428;SDS011;61643;49.564;17.412;2023-04-08T10:27:42;17.00;;;7.68;;
73428;SDS011;61643;49.564;17.412;2023-04-08T10:30:42;15.65;;;7.80;;
73428;SDS011;61643;49.564;17.412;2023-04-08T10:33:09;15.45;;;7.60;;
73428;SDS011;61643;49.564;17.412;2023-04-08T10:35:37;15.27;;;7.57;;
73428;SDS011;61643;49.564;17.412;2023-04-08T10:38:06;22.92;;;9.88;;
73428;SDS011;61643;49.564;17.412;2023-04-08T10:40:36;28.67;;;11.07;;
73428;SDS011;61643;49.564;17.412;2023-04-08T10:43:03;26.00;;;10.38;;
73428;SDS011;61643;49.564;17.412;2023-04-08T10:45:32;31.83;;;12.20;;
73428;SDS011;61643;49.564;17.412;2023-04-08T10:48:15;31.67;;;12.90;;
73428;SDS011;61643;49.564;17.412;2023-04-08T10:50:52;34.88;;;13.27;;
73428;SDS011;61643;49.564;17.412;2023-04-08T10:53:25;33.95;;;13.20;;
73428;SDS011;61643;49.564;17.412;2023-04-08T10:55:53;38.60;;;14.85;;
73428;SDS011;61643;49.564;17.412;2023-04-08T10:58:27;35.72;;;15.25;;
73428;SDS011;61643;49.564;17.412;2023-04-08T11:00:54;27.83;;;12.60;;
73428;SDS011;61643;49.564;17.412;2023-04-08T11:03:21;27.85;;;11.55;;
73428;SDS011;61643;49.564;17.412;2023-04-08T11:05:47;24.38;;;10.40;;
73428;SDS011;61643;49.564;17.412;2023-04-08T11:08:14;23.90;;;10.32;;
73428;SDS011;61643;49.564;17.412;2023-04-08T11:10:40;29.15;;;11.18;;
73428;SDS011;61643;49.564;17.412;2023-04-08T11:13:07;25.58;;;10.73;;
73428;SDS011;61643;49.564;17.412;2023-04-08T11:15:34;17.08;;;8.07;;
73428;SDS011;61643;49.564;17.412;2023-04-08T11:18:01;21.25;;;8.95;;
73428;SDS011;61643;49.564;17.412;2023-04-08T11:20:29;18.95;;;8.00;;
73428;SDS011;61643;49.564;17.412;2023-04-08T11:22:59;17.75;;;7.47;;
73428;SDS011;61643;49.564;17.412;2023-04-08T11:25:25;17.38;;;8.32;;
73428;SDS011;61643;49.564;17.412;2023-04-08T11:27:52;15.02;;;7.32;;
73428;SDS011;61643;49.564;17.412;2023-04-08T11:30:18;20.52;;;8.15;;
73428;SDS011;61643;49.564;17.412;2023-04-08T11:32:44;20.40;;;8.77;;
73428;SDS011;61643;49.564;17.412;2023-04-08T11:35:10;14.98;;;6.63;;
73428;SDS011;61643;49.564;17.412;2023-04-08T11:37:40;19.40;;;9.18;;
73428;SDS011;61643;49.564;17.412;2023-04-08T11:40:09;25.42;;;10.00;;
73428;SDS011;61643;49.564;17.412;2023-04-08T11:42:36;25.50;;;10.40;;
73428;SDS011;61643;49.564;17.412;2023-04-08T11:45:13;21.25;;;9.55;;
73428;SDS011;61643;49.564;17.412;2023-04-08T11:47:44;32.30;;;14.15;;
73428;SDS011;61643;49.564;17.412;2023-04-08T11:50:11;29.40;;;12.55;;
73428;SDS011;61643;49.564;17.412;2023-04-08T11:52:47;22.40;;;10.82;;
73428;SDS011;61643;49.564;17.412;2023-04-08T11:55:21;21.70;;;10.07;;
73428;SDS011;61643;49.564;17.412;2023-04-08T11:57:51;18.25;;;8.32;;
73428;SDS011;61643;49.564;17.412;2023-04-08T12:00:18;21.05;;;8.90;;
73428;SDS011;61643;49.564;17.412;2023-04-08T12:02:44;19.52;;;9.52;;
73428;SDS011;61643;49.564;17.412;2023-04-08T12:05:14;26.55;;;11.02;;
73428;SDS011;61643;49.564;17.412;2023-04-08T12:07:41;22.90;;;11.38;;
73428;SDS011;61643;49.564;17.412;2023-04-08T12:10:08;25.15;;;10.88;;
73428;SDS011;61643;49.564;17.412;2023-04-08T12:12:35;27.83;;;12.38;;
73428;SDS011;61643;49.564;17.412;2023-04-08T12:15:01;24.98;;;11.90;;
73428;SDS011;61643;49.564;17.412;2023-04-08T12:17:27;24.15;;;11.30;;
73428;SDS011;61643;49.564;17.412;2023-04-08T12:19:53;22.33;;;9.77;;
73428;SDS011;61643;49.564;17.412;2023-04-08T12:22:19;29.45;;;11.90;;
73428;SDS011;61643;49.564;17.412;2023-04-08T12:24:45;32.92;;;13.18;;
73428;SDS011;61643;49.564;17.412;2023-04-08T12:27:11;30.83;;;15.73;;
73428;SDS011;61643;49.564;17.412;2023-04-08T12:29:37;29.77;;;12.35;;
73428;SDS011;61643;49.564;17.412;2023-04-08T12:32:04;33.25;;;14.38;;
73428;SDS011;61643;49.564;17.412;2023-04-08T12:34:30;29.42;;;14.10;;
73428;SDS011;61643;49.564;17.412;2023-04-08T12:36:57;28.38;;;12.52;;
73428;SDS011;61643;49.564;17.412;2023-04-08T12:39:23;33.28;;;13.57;;
73428;SDS011;61643;49.564;17.412;2023-04-08T12:41:50;30.50;;;12.63;;
73428;SDS011;61643;49.564;17.412;2023-04-08T12:44:16;37.33;;;16.60;;
73428;SDS011;61643;49.564;17.412;2023-04-08T12:46:42;33.47;;;16.55;;
73428;SDS011;61643;49.564;17.412;2023-04-08T12:49:09;34.50;;;14.55;;
73428;SDS011;61643;49.564;17.412;2023-04-08T12:51:36;37.75;;;15.30;;
73428;SDS011;61643;49.564;17.412;2023-04-08T12:54:02;40.90;;;17.23;;
73428;SDS011;61643;49.564;17.412;2023-04-08T12:56:29;38.78;;;18.02;;
73428;SDS011;61643;49.564;17.412;2023-04-08T12:58:57;34.40;;;15.65;;
73428;SDS011;61643;49.564;17.412;2023-04-08T13:01:24;39.33;;;15.70;;
73428;SDS011;61643;49.564;17.412;2023-04-08T13:03:50;42.92;;;15.75;;
73428;SDS011;61643;49.564;17.412;2023-04-08T13:06:16;30.42;;;14.15;;
73428;SDS011;61643;49.564;17.412;2023-04-08T13:08:42;34.00;;;14.48;;
73428;SDS011;61643;49.564;17.412;2023-04-08T13:11:08;32.28;;;14.60;;
73428;SDS011;61643;49.564;17.412;2023-04-08T13:13:34;27.77;;;13.23;;
73428;SDS011;61643;49.564;17.412;2023-04-08T13:16:01;27.02;;;12.38;;
73428;SDS011;61643;49.564;17.412;2023-04-08T13:18:27;30.65;;;12.88;;
73428;SDS011;61643;49.564;17.412;2023-04-08T13:20:53;26.77;;;12.95;;
73428;SDS011;61643;49.564;17.412;2023-04-08T13:23:19;26.42;;;12.38;;
73428;SDS011;61643;49.564;17.412;2023-04-08T13:25:48;31.95;;;15.35;;
73428;SDS011;61643;49.564;17.412;2023-04-08T13:28:14;25.33;;;11.75;;
73428;SDS011;61643;49.564;17.412;2023-04-08T13:30:40;28.60;;;13.60;;
73428;SDS011;61643;49.564;17.412;2023-04-08T13:33:07;24.58;;;11.80;;
73428;SDS011;61643;49.564;17.412;2023-04-08T13:35:33;21.25;;;10.57;;
73428;SDS011;61643;49.564;17.412;2023-04-08T13:37:59;23.00;;;10.85;;
73428;SDS011;61643;49.564;17.412;2023-04-08T13:40:24;21.38;;;10.15;;
73428;SDS011;61643;49.564;17.412;2023-04-08T13:42:52;23.67;;;10.45;;
73428;SDS011;61643;49.564;17.412;2023-04-08T13:45:18;26.08;;;12.35;;
73428;SDS011;61643;49.564;17.412;2023-04-08T13:47:44;26.27;;;13.20;;
73428;SDS011;61643;49.564;17.412;2023-04-08T13:50:10;29.88;;;14.00;;
73428;SDS011;61643;49.564;17.412;2023-04-08T13:52:36;32.92;;;15.48;;
73428;SDS011;61643;49.564;17.412;2023-04-08T13:55:02;31.88;;;15.45;;
73428;SDS011;61643;49.564;17.412;2023-04-08T13:57:29;24.33;;;12.18;;
73428;SDS011;61643;49.564;17.412;2023-04-08T13:59:55;21.27;;;11.40;;
73428;SDS011;61643;49.564;17.412;2023-04-08T14:02:21;23.00;;;11.65;;
73428;SDS011;61643;49.564;17.412;2023-04-08T14:04:47;22.45;;;11.63;;
73428;SDS011;61643;49.564;17.412;2023-04-08T14:07:14;23.25;;;10.20;;
73428;SDS011;61643;49.564;17.412;2023-04-08T14:09:40;22.40;;;11.07;;
73428;SDS011;61643;49.564;17.412;2023-04-08T14:12:06;21.30;;;11.43;;
73428;SDS011;61643;49.564;17.412;2023-04-08T14:14:32;20.23;;;10.55;;
73428;SDS011;61643;49.564;17.412;2023-04-08T14:16:58;19.25;;;10.40;;
73428;SDS011;61643;49.564;17.412;2023-04-08T14:19:25;25.00;;;12.50;;
73428;SDS011;61643;49.564;17.412;2023-04-08T14:21:51;20.63;;;10.55;;
73428;SDS011;61643;49.564;17.412;2023-04-08T14:24:17;20.70;;;10.60;;
73428;SDS011;61643;49.564;17.412;2023-04-08T14:26:43;19.45;;;10.70;;
73428;SDS011;61643;49.564;17.412;2023-04-08T14:29:08;22.38;;;11.45;;
73428;SDS011;61643;49.564;17.412;2023-04-08T14:31:34;24.13;;;12.48;;
73428;SDS011;61643;49.564;17.412;2023-04-08T14:34:01;45.03;;;20.83;;
73428;SDS011;61643;49.564;17.412;2023-04-08T14:36:27;44.10;;;19.85;;
73428;SDS011;61643;49.564;17.412;2023-04-08T14:38:54;27.17;;;14.07;;
73428;SDS011;61643;49.564;17.412;2023-04-08T14:41:20;26.98;;;12.70;;